createdAt,value
2018-07-29T00:00:24.330Z,0.00
2018-07-29T00:01:24.300Z,0.00
2018-07-29T00:02:24.259Z,0.00
2018-07-29T00:03:24.228Z,0.00
2018-07-29T00:04:24.189Z,0.00
2018-07-29T00:05:24.149Z,0.00
2018-07-29T00:06:24.126Z,0.00
2018-07-29T00:07:24.107Z,0.00
2018-07-29T00:08:24.060Z,0.00
2018-07-29T00:09:24.029Z,0.00
2018-07-29T00:10:24.022Z,0.00
2018-07-29T00:11:23.971Z,0.00
2018-07-29T00:12:23.935Z,0.00
2018-07-29T00:13:23.897Z,0.00
2018-07-29T00:14:23.868Z,0.00
2018-07-29T00:15:23.854Z,0.00
2018-07-29T00:16:23.804Z,0.00
2018-07-29T00:17:23.768Z,0.00
2018-07-29T00:18:23.739Z,0.00
2018-07-29T00:19:23.711Z,0.00
2018-07-29T00:20:23.683Z,0.00
2018-07-29T00:21:23.642Z,0.00
2018-07-29T00:22:23.611Z,0.00
2018-07-29T00:23:23.574Z,0.00
2018-07-29T00:24:23.543Z,0.00
2018-07-29T00:25:23.535Z,0.00
2018-07-29T00:26:23.474Z,0.00
2018-07-29T00:27:23.448Z,0.00
2018-07-29T00:28:23.433Z,0.00
2018-07-29T00:29:23.392Z,0.00
2018-07-29T00:30:23.350Z,0.00
2018-07-29T00:31:23.320Z,0.00
2018-07-29T00:33:56.014Z,0.00
2018-07-29T00:34:55.895Z,0.00
2018-07-29T00:36:48.871Z,0.00
2018-07-29T00:37:48.483Z,0.00
2018-07-29T00:39:41.835Z,0.00
2018-07-29T00:40:41.402Z,0.00
2018-07-29T00:42:35.329Z,0.00
2018-07-29T00:44:48.383Z,0.00
2018-07-29T00:45:48.186Z,0.00
2018-07-29T00:47:41.816Z,0.00
2018-07-29T00:48:41.367Z,0.00
2018-07-29T00:50:36.370Z,0.00
2018-07-29T00:51:35.870Z,0.00
2018-07-29T00:53:28.906Z,0.00
2018-07-29T00:54:29.147Z,0.00
2018-07-29T00:56:21.862Z,0.00
2018-07-29T00:57:21.831Z,0.00
2018-07-29T00:59:17.142Z,0.00
2018-07-29T01:00:16.271Z,0.00
2018-07-29T01:02:09.674Z,0.00
2018-07-29T01:03:09.215Z,0.00
2018-07-29T01:05:02.674Z,0.00
2018-07-29T01:06:02.179Z,0.00
2018-07-29T01:07:55.668Z,0.00
2018-07-29T01:08:55.122Z,0.00
2018-07-29T01:10:48.481Z,0.00
2018-07-29T01:11:48.078Z,0.00
2018-07-29T01:13:41.130Z,0.00
2018-07-29T01:14:41.058Z,0.00
2018-07-29T01:16:34.378Z,0.00
2018-07-29T01:17:33.994Z,0.00
2018-07-29T01:19:28.955Z,0.00
2018-07-29T01:20:28.558Z,0.00
2018-07-29T01:22:21.601Z,0.00
2018-07-29T01:23:21.522Z,0.00
2018-07-29T01:25:15.500Z,0.00
2018-07-29T01:26:14.999Z,0.00
2018-07-29T01:28:10.059Z,0.00
2018-07-29T01:29:09.999Z,0.00
2018-07-29T01:31:02.995Z,0.00
2018-07-29T01:32:02.989Z,0.00
2018-07-29T01:33:55.969Z,0.00
2018-07-29T01:34:55.526Z,0.00
2018-07-29T01:36:49.100Z,0.00
2018-07-29T01:37:48.628Z,0.00
2018-07-29T01:39:42.531Z,0.00
2018-07-29T01:40:42.020Z,0.00
2018-07-29T01:42:35.633Z,0.00
2018-07-29T01:43:35.096Z,0.00
2018-07-29T01:45:28.500Z,0.00
2018-07-29T01:46:28.395Z,0.00
2018-07-29T01:48:21.465Z,0.00
2018-07-29T01:49:21.353Z,0.00
2018-07-29T01:51:14.427Z,0.00
2018-07-29T01:52:14.314Z,0.00
2018-07-29T01:54:07.386Z,0.00
2018-07-29T01:55:06.920Z,0.00
2018-07-29T01:57:00.287Z,0.00
2018-07-29T01:58:00.043Z,0.00
2018-07-29T01:59:53.437Z,0.00
2018-07-29T02:00:52.906Z,0.00
2018-07-29T02:02:45.949Z,0.00
2018-07-29T02:03:45.881Z,0.00
2018-07-29T02:05:39.342Z,0.00
2018-07-29T02:06:39.196Z,0.00
2018-07-29T02:08:32.216Z,0.00
2018-07-29T02:09:32.198Z,0.00
2018-07-29T02:11:26.796Z,0.00
2018-07-29T02:12:26.284Z,0.00
2018-07-29T02:14:20.149Z,0.00
2018-07-29T02:15:19.864Z,0.00
2018-07-29T02:17:14.728Z,0.00
2018-07-29T02:18:14.645Z,0.00
2018-07-29T02:20:07.280Z,0.00
2018-07-29T02:21:07.208Z,0.00
2018-07-29T02:23:00.727Z,0.00
2018-07-29T02:24:00.416Z,0.00
2018-07-29T02:25:53.570Z,0.00
2018-07-29T02:26:53.510Z,0.00
2018-07-29T02:28:46.460Z,0.00
2018-07-29T02:29:46.069Z,0.00
2018-07-29T02:31:39.446Z,0.00
2018-07-29T02:32:39.025Z,0.00
2018-07-29T02:33:38.983Z,0.00
2018-07-29T02:34:39.110Z,0.00
2018-07-29T02:35:38.897Z,0.00
2018-07-29T02:36:38.928Z,0.00
2018-07-29T02:37:39.197Z,0.00
2018-07-29T02:38:38.793Z,0.00
2018-07-29T02:39:38.752Z,0.00
2018-07-29T02:40:38.725Z,0.00
2018-07-29T02:41:38.691Z,0.00
2018-07-29T02:42:38.667Z,0.00
2018-07-29T02:43:38.632Z,0.00
2018-07-29T02:44:38.626Z,0.00
2018-07-29T02:45:38.556Z,0.00
2018-07-29T02:46:38.521Z,0.00
2018-07-29T02:47:38.496Z,0.00
2018-07-29T02:48:38.451Z,0.00
2018-07-29T02:49:38.422Z,0.00
2018-07-29T02:50:38.403Z,0.00
2018-07-29T02:51:38.359Z,0.00
2018-07-29T02:52:38.322Z,0.00
2018-07-29T02:53:38.279Z,0.00
2018-07-29T02:54:38.261Z,0.00
2018-07-29T02:55:38.258Z,0.00
2018-07-29T02:56:38.186Z,0.00
2018-07-29T02:57:38.152Z,0.00
2018-07-29T02:58:38.128Z,0.00
2018-07-29T02:59:38.085Z,0.00
2018-07-29T03:00:38.050Z,0.00
2018-07-29T03:01:38.029Z,0.00
2018-07-29T03:02:37.989Z,0.00
2018-07-29T03:03:37.949Z,0.00
2018-07-29T03:04:37.944Z,0.00
2018-07-29T03:05:37.902Z,0.00
2018-07-29T03:06:37.850Z,0.00
2018-07-29T03:07:37.816Z,0.00
2018-07-29T03:08:37.786Z,0.00
2018-07-29T03:09:37.757Z,0.00
2018-07-29T03:10:37.748Z,0.00
2018-07-29T03:11:37.683Z,0.00
2018-07-29T03:12:37.650Z,0.00
2018-07-29T03:13:37.611Z,0.00
2018-07-29T03:14:37.584Z,0.00
2018-07-29T03:15:37.553Z,0.00
2018-07-29T03:16:37.587Z,0.00
2018-07-29T03:17:37.486Z,0.00
2018-07-29T03:18:37.455Z,0.00
2018-07-29T03:19:37.428Z,0.00
2018-07-29T03:20:37.393Z,0.00
2018-07-29T03:21:37.341Z,0.00
2018-07-29T03:22:37.321Z,5.63
2018-07-29T03:23:37.288Z,5.63
2018-07-29T03:24:37.268Z,5.63
2018-07-29T03:25:37.218Z,5.63
2018-07-29T03:26:37.176Z,5.63
2018-07-29T03:27:37.151Z,5.63
2018-07-29T03:28:37.121Z,5.63
2018-07-29T03:29:37.078Z,5.63
2018-07-29T03:30:37.063Z,11.25
2018-07-29T03:31:37.027Z,11.25
2018-07-29T03:32:36.986Z,16.88
2018-07-29T03:33:36.983Z,16.88
2018-07-29T03:34:36.954Z,16.88
2018-07-29T03:35:36.888Z,22.50
2018-07-29T03:36:36.843Z,22.50
2018-07-29T03:37:36.823Z,28.13
2018-07-29T03:38:36.781Z,28.13
2018-07-29T03:39:36.752Z,28.13
2018-07-29T03:40:36.729Z,33.75
2018-07-29T03:41:36.675Z,33.75
2018-07-29T03:42:36.651Z,39.38
2018-07-29T03:43:36.609Z,39.38
2018-07-29T03:44:36.576Z,45.00
2018-07-29T03:45:36.546Z,45.00
2018-07-29T03:46:36.505Z,50.63
2018-07-29T03:47:36.468Z,50.63
2018-07-29T03:48:36.442Z,56.25
2018-07-29T03:49:36.408Z,56.25
2018-07-29T03:50:36.389Z,61.88
2018-07-29T03:51:36.347Z,67.50
2018-07-29T03:52:36.317Z,67.50
2018-07-29T03:53:36.267Z,73.13
2018-07-29T03:54:36.233Z,78.75
2018-07-29T03:55:36.230Z,84.38
2018-07-29T03:56:36.171Z,84.38
2018-07-29T03:57:36.152Z,90.00
2018-07-29T03:58:36.123Z,95.63
2018-07-29T03:59:36.064Z,95.63
2018-07-29T04:00:36.043Z,101.25
2018-07-29T04:01:36.002Z,106.88
2018-07-29T04:02:35.972Z,112.50
2018-07-29T04:03:35.962Z,118.13
2018-07-29T04:04:35.902Z,123.75
2018-07-29T04:05:35.880Z,129.38
2018-07-29T04:06:35.846Z,135.00
2018-07-29T04:07:35.807Z,140.63
2018-07-29T04:08:35.843Z,146.25
2018-07-29T04:09:35.734Z,151.88
2018-07-29T04:10:35.718Z,163.13
2018-07-29T04:11:35.721Z,168.75
2018-07-29T04:12:35.637Z,180.00
2018-07-29T04:13:35.640Z,185.63
2018-07-29T04:14:35.572Z,191.25
2018-07-29T04:15:35.525Z,196.88
2018-07-29T04:16:35.524Z,202.50
2018-07-29T04:17:35.482Z,213.75
2018-07-29T04:18:35.442Z,219.38
2018-07-29T04:19:35.426Z,225.00
2018-07-29T04:20:35.406Z,236.25
2018-07-29T04:21:35.337Z,241.88
2018-07-29T04:22:35.305Z,253.13
2018-07-29T04:23:35.285Z,258.75
2018-07-29T04:24:35.269Z,270.00
2018-07-29T04:25:35.202Z,281.25
2018-07-29T04:26:35.178Z,286.88
2018-07-29T04:27:35.131Z,298.13
2018-07-29T04:28:35.095Z,309.38
2018-07-29T04:29:35.084Z,320.63
2018-07-29T04:30:35.042Z,331.88
2018-07-29T04:31:35.005Z,348.75
2018-07-29T04:32:34.975Z,348.75
2018-07-29T04:33:34.953Z,354.38
2018-07-29T04:34:34.891Z,354.38
2018-07-29T04:35:34.881Z,354.38
2018-07-29T04:36:34.875Z,360.00
2018-07-29T04:37:34.835Z,365.63
2018-07-29T04:38:34.782Z,371.25
2018-07-29T04:39:34.733Z,382.50
2018-07-29T04:40:34.712Z,388.13
2018-07-29T04:41:34.682Z,399.38
2018-07-29T04:42:34.637Z,421.88
2018-07-29T04:43:34.613Z,421.88
2018-07-29T04:44:34.582Z,421.88
2018-07-29T04:45:34.535Z,416.25
2018-07-29T04:46:34.523Z,427.50
2018-07-29T04:47:34.483Z,433.13
2018-07-29T04:48:34.443Z,433.13
2018-07-29T04:49:34.438Z,438.75
2018-07-29T04:50:34.367Z,450.00
2018-07-29T04:51:34.343Z,461.25
2018-07-29T04:52:34.344Z,450.00
2018-07-29T04:53:34.282Z,450.00
2018-07-29T04:54:34.250Z,461.25
2018-07-29T04:55:34.216Z,461.25
2018-07-29T04:56:34.175Z,472.50
2018-07-29T04:57:34.177Z,466.88
2018-07-29T04:58:34.120Z,466.88
2018-07-29T04:59:34.101Z,489.38
2018-07-29T05:00:34.103Z,478.13
2018-07-29T05:01:34.034Z,472.50
2018-07-29T05:02:33.991Z,495.00
2018-07-29T05:03:33.947Z,517.50
2018-07-29T05:04:33.924Z,540.00
2018-07-29T05:05:33.915Z,579.38
2018-07-29T05:06:33.868Z,579.38
2018-07-29T05:07:33.839Z,579.38
2018-07-29T05:08:33.795Z,573.75
2018-07-29T05:09:33.761Z,596.25
2018-07-29T05:10:33.740Z,635.63
2018-07-29T05:11:33.703Z,680.63
2018-07-29T05:12:33.666Z,714.38
2018-07-29T05:13:33.662Z,725.63
2018-07-29T05:14:33.612Z,781.88
2018-07-29T05:15:33.570Z,888.75
2018-07-29T05:16:33.550Z,933.75
2018-07-29T05:17:33.512Z,877.50
2018-07-29T05:18:33.493Z,928.13
2018-07-29T05:19:33.451Z,905.63
2018-07-29T05:20:33.424Z,984.38
2018-07-29T05:21:33.419Z,1096.88
2018-07-29T05:22:33.367Z,1141.88
2018-07-29T05:23:33.332Z,1226.25
2018-07-29T05:24:33.282Z,1119.38
2018-07-29T05:25:33.281Z,1136.25
2018-07-29T05:26:33.232Z,1333.13
2018-07-29T05:27:33.199Z,1192.50
2018-07-29T05:28:33.183Z,956.25
2018-07-29T05:29:33.135Z,967.50
2018-07-29T05:30:33.113Z,1046.25
2018-07-29T05:31:33.109Z,1068.75
2018-07-29T05:32:33.061Z,995.63
2018-07-29T05:33:33.072Z,956.25
2018-07-29T05:34:32.994Z,922.50
2018-07-29T05:35:33.003Z,888.75
2018-07-29T05:36:32.923Z,871.88
2018-07-29T05:37:32.902Z,956.25
2018-07-29T05:38:32.856Z,1029.38
2018-07-29T05:39:32.850Z,1023.75
2018-07-29T05:40:32.838Z,905.63
2018-07-29T05:41:32.771Z,883.13
2018-07-29T05:42:32.748Z,877.50
2018-07-29T05:43:32.726Z,871.88
2018-07-29T05:44:32.705Z,888.75
2018-07-29T05:45:32.683Z,866.25
2018-07-29T05:46:32.672Z,849.38
2018-07-29T05:47:32.602Z,849.38
2018-07-29T05:48:32.588Z,832.50
2018-07-29T05:49:32.549Z,821.25
2018-07-29T05:50:32.504Z,815.63
2018-07-29T05:51:32.492Z,804.38
2018-07-29T05:52:32.473Z,804.38
2018-07-29T05:53:32.429Z,810.00
2018-07-29T05:54:32.383Z,849.38
2018-07-29T05:55:32.415Z,832.50
2018-07-29T05:56:32.346Z,804.38
2018-07-29T05:57:32.296Z,810.00
2018-07-29T05:58:32.280Z,804.38
2018-07-29T05:59:32.240Z,781.88
2018-07-29T06:00:32.210Z,770.63
2018-07-29T06:01:32.169Z,759.38
2018-07-29T06:02:32.154Z,748.13
2018-07-29T06:03:32.159Z,753.75
2018-07-29T06:04:32.089Z,748.13
2018-07-29T06:05:35.010Z,748.13
2018-07-29T06:06:32.032Z,759.38
2018-07-29T06:07:32.005Z,765.00
2018-07-29T06:08:31.967Z,793.13
2018-07-29T06:09:31.975Z,815.63
2018-07-29T06:10:31.919Z,821.25
2018-07-29T06:11:31.901Z,821.25
2018-07-29T06:12:31.871Z,832.50
2018-07-29T06:13:31.847Z,855.00
2018-07-29T06:14:31.800Z,843.75
2018-07-29T06:15:31.777Z,855.00
2018-07-29T06:16:31.768Z,866.25
2018-07-29T06:17:31.724Z,849.38
2018-07-29T06:18:31.709Z,911.25
2018-07-29T06:19:31.661Z,967.50
2018-07-29T06:20:31.633Z,928.13
2018-07-29T06:21:31.599Z,894.38
2018-07-29T06:22:31.582Z,922.50
2018-07-29T06:23:31.541Z,894.38
2018-07-29T06:24:31.508Z,883.13
2018-07-29T06:25:31.495Z,877.50
2018-07-29T06:26:31.449Z,883.13
2018-07-29T06:27:31.421Z,838.13
2018-07-29T06:28:31.401Z,838.13
2018-07-29T06:29:31.354Z,821.25
2018-07-29T06:30:31.341Z,798.75
2018-07-29T06:31:31.300Z,804.38
2018-07-29T06:32:31.276Z,815.63
2018-07-29T06:33:31.243Z,815.63
2018-07-29T06:34:31.236Z,843.75
2018-07-29T06:35:31.190Z,860.63
2018-07-29T06:36:31.185Z,838.13
2018-07-29T06:37:31.141Z,821.25
2018-07-29T06:38:31.108Z,815.63
2018-07-29T06:39:31.081Z,804.38
2018-07-29T06:40:31.046Z,810.00
2018-07-29T06:41:31.034Z,810.00
2018-07-29T06:42:31.023Z,810.00
2018-07-29T06:43:30.992Z,815.63
2018-07-29T06:44:30.930Z,832.50
2018-07-29T06:45:30.895Z,843.75
2018-07-29T06:46:30.882Z,849.38
2018-07-29T06:47:30.853Z,849.38
2018-07-29T06:48:30.804Z,849.38
2018-07-29T06:49:30.767Z,866.25
2018-07-29T06:50:30.764Z,888.75
2018-07-29T06:51:30.727Z,900.00
2018-07-29T06:52:30.688Z,911.25
2018-07-29T06:53:30.661Z,950.63
2018-07-29T06:54:30.629Z,945.00
2018-07-29T06:55:30.644Z,1113.75
2018-07-29T06:56:30.690Z,1456.88
2018-07-29T06:57:30.577Z,1659.38
2018-07-29T06:58:30.524Z,1895.63
2018-07-29T06:59:30.492Z,2008.13
2018-07-29T07:00:30.481Z,2036.25
2018-07-29T07:01:30.426Z,2227.50
2018-07-29T07:02:30.415Z,2632.50
2018-07-29T07:03:30.400Z,2621.25
2018-07-29T07:04:30.361Z,2649.38
2018-07-29T07:05:30.390Z,2896.88
2018-07-29T07:06:30.303Z,2745.00
2018-07-29T07:07:30.350Z,2638.13
2018-07-29T07:08:30.245Z,2621.25
2018-07-29T07:09:30.256Z,2621.25
2018-07-29T07:10:30.228Z,2452.50
2018-07-29T07:11:30.184Z,2688.75
2018-07-29T07:12:30.160Z,3048.75
2018-07-29T07:13:30.120Z,3155.63
2018-07-29T07:14:30.089Z,2970.00
2018-07-29T07:15:30.101Z,2801.25
2018-07-29T07:16:30.048Z,2615.63
2018-07-29T07:17:30.021Z,2671.88
2018-07-29T07:18:29.985Z,2908.13
2018-07-29T07:19:30.014Z,2632.50
2018-07-29T07:20:29.931Z,2632.50
2018-07-29T07:21:29.930Z,2705.63
2018-07-29T07:22:29.903Z,2587.50
2018-07-29T07:23:29.894Z,2941.88
2018-07-29T07:24:29.851Z,3296.25
2018-07-29T07:25:29.887Z,3189.38
2018-07-29T07:26:29.825Z,3206.25
2018-07-29T07:27:29.770Z,3268.13
2018-07-29T07:28:29.771Z,3363.75
2018-07-29T07:29:29.747Z,3403.13
2018-07-29T07:30:29.719Z,3110.63
2018-07-29T07:31:29.711Z,3183.75
2018-07-29T07:32:29.687Z,3268.13
2018-07-29T07:33:29.694Z,3234.38
2018-07-29T07:34:29.648Z,3251.25
2018-07-29T07:35:29.608Z,3003.75
2018-07-29T07:36:29.607Z,2790.00
2018-07-29T07:37:29.576Z,2553.75
2018-07-29T07:38:29.598Z,2452.50
2018-07-29T07:39:29.543Z,2435.63
2018-07-29T07:40:29.506Z,2677.50
2018-07-29T07:41:29.502Z,2885.63
2018-07-29T07:42:29.510Z,2801.25
2018-07-29T07:43:29.480Z,2587.50
2018-07-29T07:44:29.451Z,2694.38
2018-07-29T07:45:29.426Z,2632.50
2018-07-29T07:46:29.418Z,2463.75
2018-07-29T07:47:29.367Z,2373.75
2018-07-29T07:48:29.374Z,2368.13
2018-07-29T07:49:29.371Z,2323.13
2018-07-29T07:50:29.322Z,2193.75
2018-07-29T07:51:29.312Z,2193.75
2018-07-29T07:52:29.274Z,2317.50
2018-07-29T07:53:29.262Z,2441.25
2018-07-29T07:54:29.239Z,2683.13
2018-07-29T07:55:29.265Z,2655.00
2018-07-29T07:56:29.232Z,2671.88
2018-07-29T07:57:29.166Z,2801.25
2018-07-29T07:58:29.178Z,2835.00
2018-07-29T07:59:29.142Z,2745.00
2018-07-29T08:00:29.121Z,2643.75
2018-07-29T08:01:29.105Z,2694.38
2018-07-29T08:02:29.099Z,2677.50
2018-07-29T08:03:29.082Z,2598.75
2018-07-29T08:04:29.057Z,2790.00
2018-07-29T08:05:29.018Z,2975.63
2018-07-29T08:06:29.001Z,2666.25
2018-07-29T08:07:29.018Z,2677.50
2018-07-29T08:08:28.967Z,2660.63
2018-07-29T08:09:29.014Z,2823.75
2018-07-29T08:10:28.919Z,2655.00
2018-07-29T08:11:28.893Z,2581.88
2018-07-29T08:12:28.906Z,2896.88
2018-07-29T08:13:28.875Z,2970.00
2018-07-29T08:14:28.856Z,2756.25
2018-07-29T08:15:28.820Z,2520.00
2018-07-29T08:16:28.915Z,2565.00
2018-07-29T08:17:28.775Z,2565.00
2018-07-29T08:18:28.757Z,2300.63
2018-07-29T08:19:28.777Z,2272.50
2018-07-29T08:20:28.733Z,2289.38
2018-07-29T08:21:28.688Z,2418.75
2018-07-29T08:22:28.682Z,2401.88
2018-07-29T08:23:28.681Z,2351.25
2018-07-29T08:24:28.672Z,2660.63
2018-07-29T08:25:28.601Z,2846.25
2018-07-29T08:26:28.602Z,2986.88
2018-07-29T08:27:28.585Z,3116.25
2018-07-29T08:28:28.558Z,3105.00
2018-07-29T08:29:28.551Z,3161.25
2018-07-29T08:30:28.529Z,3026.25
2018-07-29T08:31:28.494Z,3043.13
2018-07-29T08:32:28.487Z,3138.75
2018-07-29T08:33:28.499Z,3116.25
2018-07-29T08:34:28.418Z,2801.25
2018-07-29T08:35:28.412Z,2925.00
2018-07-29T08:36:28.388Z,3335.63
2018-07-29T08:37:28.369Z,3369.38
2018-07-29T08:38:28.341Z,3296.25
2018-07-29T08:39:28.323Z,3915.00
2018-07-29T08:40:28.303Z,3420.00
2018-07-29T08:41:28.290Z,3346.88
2018-07-29T08:42:28.258Z,3442.50
2018-07-29T08:43:28.246Z,3279.38
2018-07-29T08:44:28.227Z,3054.38
2018-07-29T08:45:28.269Z,3150.00
2018-07-29T08:46:28.167Z,3481.88
2018-07-29T08:47:28.173Z,3825.00
2018-07-29T08:48:28.155Z,3375.00
2018-07-29T08:49:28.127Z,3088.13
2018-07-29T08:50:28.149Z,3735.00
2018-07-29T08:51:28.083Z,4134.38
2018-07-29T08:52:28.067Z,3526.88
2018-07-29T08:53:28.039Z,2925.00
2018-07-29T08:54:28.023Z,2846.25
2018-07-29T08:55:27.999Z,2975.63
2018-07-29T08:56:28.000Z,3054.38
2018-07-29T08:57:27.964Z,3386.25
2018-07-29T08:58:27.950Z,3600.00
2018-07-29T08:59:27.929Z,4038.75
2018-07-29T09:00:27.981Z,3796.88
2018-07-29T09:01:27.936Z,3667.50
2018-07-29T09:02:27.868Z,3144.38
2018-07-29T09:03:27.859Z,3234.38
2018-07-29T09:04:27.958Z,3459.38
2018-07-29T09:05:27.861Z,3999.38
2018-07-29T09:06:27.798Z,4083.75
2018-07-29T09:07:27.767Z,3656.25
2018-07-29T09:08:27.783Z,3268.13
2018-07-29T09:09:27.728Z,3099.38
2018-07-29T09:10:27.785Z,3313.13
2018-07-29T09:11:27.691Z,3150.00
2018-07-29T09:12:27.682Z,3060.00
2018-07-29T09:13:27.667Z,3515.63
2018-07-29T09:14:27.654Z,3960.00
2018-07-29T09:15:27.634Z,3774.38
2018-07-29T09:16:27.608Z,3526.88
2018-07-29T09:17:27.584Z,3026.25
2018-07-29T09:18:27.613Z,2553.75
2018-07-29T09:19:27.563Z,2463.75
2018-07-29T09:20:27.516Z,2373.75
2018-07-29T09:21:27.548Z,2362.50
2018-07-29T09:22:27.499Z,2131.88
2018-07-29T09:23:27.527Z,1980.00
2018-07-29T09:24:27.441Z,1890.00
2018-07-29T09:25:27.421Z,1850.63
2018-07-29T09:26:27.424Z,1822.50
2018-07-29T09:27:27.412Z,1833.75
2018-07-29T09:28:27.360Z,1867.50
2018-07-29T09:29:27.369Z,1918.13
2018-07-29T09:30:27.500Z,2013.75
2018-07-29T09:31:27.319Z,2148.75
2018-07-29T09:32:27.296Z,2244.38
2018-07-29T09:33:27.283Z,2362.50
2018-07-29T09:34:27.280Z,2469.38
2018-07-29T09:35:27.229Z,2536.88
2018-07-29T09:36:27.222Z,2610.00
2018-07-29T09:37:27.215Z,2604.38
2018-07-29T09:38:27.172Z,2666.25
2018-07-29T09:39:27.166Z,2823.75
2018-07-29T09:40:27.120Z,2733.75
2018-07-29T09:41:27.106Z,2705.63
2018-07-29T09:42:27.104Z,2626.88
2018-07-29T09:43:27.049Z,2598.75
2018-07-29T09:44:27.036Z,2587.50
2018-07-29T09:45:27.096Z,2666.25
2018-07-29T09:46:27.022Z,2683.13
2018-07-29T09:47:27.050Z,2643.75
2018-07-29T09:48:26.975Z,2638.13
2018-07-29T09:49:26.999Z,2700.00
2018-07-29T09:50:26.928Z,2728.13
2018-07-29T09:51:26.882Z,3065.63
2018-07-29T09:52:26.870Z,3217.50
2018-07-29T09:53:26.857Z,3459.38
2018-07-29T09:54:26.852Z,2913.75
2018-07-29T09:55:26.802Z,3178.13
2018-07-29T09:56:26.765Z,3330.00
2018-07-29T09:57:26.752Z,3931.88
2018-07-29T09:58:26.762Z,3526.88
2018-07-29T09:59:26.719Z,3695.63
2018-07-29T10:00:26.702Z,4111.88
2018-07-29T10:01:26.668Z,4387.50
2018-07-29T10:02:26.652Z,4736.25
2018-07-29T10:03:26.630Z,4730.63
2018-07-29T10:04:26.611Z,4618.13
2018-07-29T10:05:26.597Z,4224.38
2018-07-29T10:06:26.565Z,3498.75
2018-07-29T10:07:26.551Z,3391.88
2018-07-29T10:08:26.523Z,3273.75
2018-07-29T10:09:26.539Z,2986.88
2018-07-29T10:10:26.509Z,2716.88
2018-07-29T10:11:26.486Z,2773.13
2018-07-29T10:12:26.479Z,3150.00
2018-07-29T10:13:26.454Z,3628.13
2018-07-29T10:14:26.406Z,3780.00
2018-07-29T10:15:26.380Z,3836.25
2018-07-29T10:16:26.420Z,3583.13
2018-07-29T10:17:26.352Z,3661.88
2018-07-29T10:18:26.326Z,3403.13
2018-07-29T10:19:26.296Z,3391.88
2018-07-29T10:20:26.275Z,3588.75
2018-07-29T10:21:26.249Z,3729.38
2018-07-29T10:22:26.233Z,4005.00
2018-07-29T10:23:26.216Z,4241.25
2018-07-29T10:24:26.204Z,4246.88
2018-07-29T10:25:26.186Z,5017.50
2018-07-29T10:26:26.148Z,3988.13
2018-07-29T10:27:26.123Z,3414.38
2018-07-29T10:28:26.120Z,2998.13
2018-07-29T10:29:26.111Z,3065.63
2018-07-29T10:30:26.094Z,3251.25
2018-07-29T10:31:26.046Z,3436.88
2018-07-29T10:32:26.043Z,3245.63
2018-07-29T10:33:26.029Z,2716.88
2018-07-29T10:34:26.012Z,2452.50
2018-07-29T10:35:25.980Z,2531.25
2018-07-29T10:36:25.951Z,2452.50
2018-07-29T10:37:25.946Z,2323.13
2018-07-29T10:38:25.949Z,2227.50
2018-07-29T10:39:25.891Z,2188.13
2018-07-29T10:40:25.871Z,2143.13
2018-07-29T10:41:25.885Z,2137.50
2018-07-29T10:42:25.827Z,2165.63
2018-07-29T10:43:25.833Z,2131.88
2018-07-29T10:44:25.810Z,2103.75
2018-07-29T10:45:25.874Z,2148.75
2018-07-29T10:46:25.750Z,2216.25
2018-07-29T10:47:25.757Z,2221.88
2018-07-29T10:48:25.772Z,2272.50
2018-07-29T10:49:25.716Z,2283.75
2018-07-29T10:50:25.685Z,2317.50
2018-07-29T10:51:25.649Z,2334.38
2018-07-29T10:52:25.658Z,2362.50
2018-07-29T10:53:25.626Z,2390.63
2018-07-29T10:54:25.602Z,2435.63
2018-07-29T10:55:25.566Z,2435.63
2018-07-29T10:56:25.639Z,2328.75
2018-07-29T10:57:25.565Z,2278.13
2018-07-29T10:58:25.499Z,2171.25
2018-07-29T10:59:25.477Z,2109.38
2018-07-29T11:00:25.493Z,2053.13
2018-07-29T11:01:25.440Z,2025.00
2018-07-29T11:02:25.429Z,2002.50
2018-07-29T11:03:25.393Z,1991.25
2018-07-29T11:04:26.056Z,2002.50
2018-07-29T11:05:25.378Z,2030.63
2018-07-29T11:06:25.342Z,2075.63
2018-07-29T11:07:25.323Z,2103.75
2018-07-29T11:08:25.297Z,2103.75
2018-07-29T11:09:25.271Z,2081.25
2018-07-29T11:10:25.253Z,2081.25
2018-07-29T11:11:25.282Z,2075.63
2018-07-29T11:12:25.205Z,2092.50
2018-07-29T11:13:25.189Z,2131.88
2018-07-29T11:14:25.174Z,2154.38
2018-07-29T11:15:25.150Z,2188.13
2018-07-29T11:16:25.169Z,2233.13
2018-07-29T11:17:25.124Z,2323.13
2018-07-29T11:18:25.084Z,2413.13
2018-07-29T11:19:25.056Z,2514.38
2018-07-29T11:20:25.032Z,2632.50
2018-07-29T11:21:25.011Z,2722.50
2018-07-29T11:22:24.986Z,2694.38
2018-07-29T11:23:24.974Z,2576.25
2018-07-29T11:24:24.953Z,2570.63
2018-07-29T11:25:24.918Z,2688.75
2018-07-29T11:26:24.922Z,2683.13
2018-07-29T11:27:24.896Z,2716.88
2018-07-29T11:28:24.870Z,2863.13
2018-07-29T11:29:24.840Z,2986.88
2018-07-29T11:30:24.827Z,3093.75
2018-07-29T11:31:24.791Z,3071.25
2018-07-29T11:32:24.775Z,3116.25
2018-07-29T11:33:24.740Z,3211.88
2018-07-29T11:34:24.737Z,3369.38
2018-07-29T11:35:24.713Z,3543.75
2018-07-29T11:36:24.683Z,3735.00
2018-07-29T11:37:24.675Z,3903.75
2018-07-29T11:38:24.637Z,3538.13
2018-07-29T11:39:24.622Z,3667.50
2018-07-29T11:40:24.607Z,3931.88
2018-07-29T11:41:24.583Z,4061.25
2018-07-29T11:42:24.572Z,4494.38
2018-07-29T11:43:24.533Z,4623.75
2018-07-29T11:44:24.532Z,4353.75
2018-07-29T11:45:24.512Z,3256.88
2018-07-29T11:46:24.543Z,3195.00
2018-07-29T11:47:24.465Z,3616.88
2018-07-29T11:48:24.440Z,3217.50
2018-07-29T11:49:24.469Z,2863.13
2018-07-29T11:50:24.437Z,3510.00
2018-07-29T11:51:24.391Z,5028.75
2018-07-29T11:52:24.456Z,5163.75
2018-07-29T11:53:24.344Z,5158.13
2018-07-29T11:54:24.400Z,4719.38
2018-07-29T11:55:24.411Z,4269.38
2018-07-29T11:56:24.295Z,4387.50
2018-07-29T11:57:24.352Z,3346.88
2018-07-29T11:58:24.235Z,3436.88
2018-07-29T11:59:24.239Z,3729.38
2018-07-29T12:00:24.215Z,3566.25
2018-07-29T12:01:24.188Z,4921.88
2018-07-29T12:02:24.159Z,5461.88
2018-07-29T12:03:24.186Z,4668.75
2018-07-29T12:04:24.112Z,4573.13
2018-07-29T12:05:24.088Z,3628.13
2018-07-29T12:06:24.077Z,3510.00
2018-07-29T12:07:24.052Z,3706.88
2018-07-29T12:08:24.029Z,3105.00
2018-07-29T12:09:24.000Z,2896.88
2018-07-29T12:10:23.986Z,2756.25
2018-07-29T12:11:23.994Z,2520.00
2018-07-29T12:12:23.958Z,2953.13
2018-07-29T12:13:23.986Z,3453.75
2018-07-29T12:14:23.939Z,3465.00
2018-07-29T12:15:23.891Z,2998.13
2018-07-29T12:16:23.894Z,2756.25
2018-07-29T12:17:23.880Z,2649.38
2018-07-29T12:18:23.882Z,2565.00
2018-07-29T12:19:23.809Z,2536.88
2018-07-29T12:20:23.812Z,2570.63
2018-07-29T12:21:23.802Z,2801.25
2018-07-29T12:22:23.750Z,3397.50
2018-07-29T12:23:23.757Z,3521.25
2018-07-29T12:24:23.728Z,3043.13
2018-07-29T12:25:23.698Z,3020.63
2018-07-29T12:26:23.687Z,3341.25
2018-07-29T12:27:23.660Z,3943.13
2018-07-29T12:28:23.657Z,2919.38
2018-07-29T12:29:23.644Z,2548.13
2018-07-29T12:30:23.598Z,2683.13
2018-07-29T12:31:23.598Z,2688.75
2018-07-29T12:32:23.564Z,2570.63
2018-07-29T12:33:23.543Z,2581.88
2018-07-29T12:34:23.524Z,2851.88
2018-07-29T12:35:23.573Z,2649.38
2018-07-29T12:36:23.499Z,2610.00
2018-07-29T12:37:23.455Z,2615.63
2018-07-29T12:38:23.471Z,3015.00
2018-07-29T12:39:23.433Z,2874.38
2018-07-29T12:40:23.432Z,2953.13
2018-07-29T12:41:23.475Z,2829.38
2018-07-29T12:42:23.380Z,2587.50
2018-07-29T12:43:23.440Z,3825.00
2018-07-29T12:44:23.333Z,2941.88
2018-07-29T12:45:23.307Z,2885.63
2018-07-29T12:46:23.290Z,2565.00
2018-07-29T12:47:23.292Z,2542.50
2018-07-29T12:48:23.256Z,2818.13
2018-07-29T12:49:23.217Z,4522.50
2018-07-29T12:50:23.205Z,4021.88
2018-07-29T12:51:23.180Z,4404.38
2018-07-29T12:52:23.155Z,5118.75
2018-07-29T12:53:23.142Z,5619.38
2018-07-29T12:54:23.170Z,6311.25
2018-07-29T12:55:23.108Z,5928.75
2018-07-29T12:56:23.080Z,5934.38
2018-07-29T12:57:23.083Z,5771.25
2018-07-29T12:58:23.139Z,5686.88
2018-07-29T12:59:23.070Z,5731.88
2018-07-29T13:00:23.129Z,5985.00
2018-07-29T13:01:23.042Z,5737.50
2018-07-29T13:02:23.016Z,5298.75
2018-07-29T13:03:23.011Z,5478.75
2018-07-29T13:04:22.941Z,5917.50
2018-07-29T13:05:22.942Z,5748.75
2018-07-29T13:06:22.878Z,5473.13